sensor_id;sensor_type;location;lat;lon;timestamp;pressure;altitude;pressure_sealevel;temperature;humidity
53719;BME280;39616;48.872;9.390;2023-02-11T00:00:21;100397.78;;;-4.33;100.00
53719;BME280;39616;48.872;9.390;2023-02-11T00:02:51;100398.25;;;-4.38;100.00
53719;BME280;39616;48.872;9.390;2023-02-11T00:05:22;100401.56;;;-4.36;100.00
53719;BME280;39616;48.872;9.390;2023-02-11T00:07:52;100401.56;;;-4.36;100.00
53719;BME280;39616;48.872;9.390;2023-02-11T00:10:22;100396.44;;;-4.38;100.00
53719;BME280;39616;48.872;9.390;2023-02-11T00:12:53;100391.25;;;-4.39;100.00
53719;BME280;39616;48.872;9.390;2023-02-11T00:15:23;100395.72;;;-4.40;100.00
53719;BME280;39616;48.872;9.390;2023-02-11T00:17:53;100389.03;;;-4.34;100.00
53719;BME280;39616;48.872;9.390;2023-02-11T00:20:23;100388.03;;;-4.33;100.00
53719;BME280;39616;48.872;9.390;2023-02-11T00:22:54;100386.97;;;-4.40;100.00
53719;BME280;39616;48.872;9.390;2023-02-11T00:25:24;100385.44;;;-4.43;100.00
53719;BME280;39616;48.872;9.390;2023-02-11T00:27:54;100380.97;;;-4.42;100.00
53719;BME280;39616;48.872;9.390;2023-02-11T00:30:25;100379.19;;;-4.42;100.00
53719;BME280;39616;48.872;9.390;2023-02-11T00:32:55;100386.59;;;-4.45;100.00
53719;BME280;39616;48.872;9.390;2023-02-11T00:35:25;100385.19;;;-4.49;100.00
53719;BME280;39616;48.872;9.390;2023-02-11T00:37:56;100380.34;;;-4.54;100.00
53719;BME280;39616;48.872;9.390;2023-02-11T00:40:26;100376.56;;;-4.51;100.00
53719;BME280;39616;48.872;9.390;2023-02-11T00:42:56;100370.16;;;-4.49;100.00
53719;BME280;39616;48.872;9.390;2023-02-11T00:45:27;100374.59;;;-4.49;100.00
53719;BME280;39616;48.872;9.390;2023-02-11T00:47:59;100375.84;;;-4.44;100.00
53719;BME280;39616;48.872;9.390;2023-02-11T00:50:29;100376.81;;;-4.45;100.00
53719;BME280;39616;48.872;9.390;2023-02-11T00:53:00;100374.00;;;-4.43;100.00
53719;BME280;39616;48.872;9.390;2023-02-11T00:55:30;100375.66;;;-4.42;100.00
53719;BME280;39616;48.872;9.390;2023-02-11T00:58:00;100365.47;;;-4.37;100.00
53719;BME280;39616;48.872;9.390;2023-02-11T01:00:31;100369.50;;;-4.33;100.00
53719;BME280;39616;48.872;9.390;2023-02-11T01:03:01;100364.44;;;-4.26;100.00
53719;BME280;39616;48.872;9.390;2023-02-11T01:05:32;100358.59;;;-4.30;100.00
53719;BME280;39616;48.872;9.390;2023-02-11T01:08:02;100344.53;;;-4.30;100.00
53719;BME280;39616;48.872;9.390;2023-02-11T01:10:32;100343.28;;;-4.36;100.00
53719;BME280;39616;48.872;9.390;2023-02-11T01:13:03;100341.41;;;-4.44;100.00
53719;BME280;39616;48.872;9.390;2023-02-11T01:15:35;100331.56;;;-4.51;100.00
53719;BME280;39616;48.872;9.390;2023-02-11T01:18:05;100329.25;;;-4.64;100.00
53719;BME280;39616;48.872;9.390;2023-02-11T01:20:36;100333.81;;;-4.74;100.00
53719;BME280;39616;48.872;9.390;2023-02-11T01:23:06;100333.56;;;-4.81;100.00
53719;BME280;39616;48.872;9.390;2023-02-11T01:25:36;100328.81;;;-4.77;100.00
53719;BME280;39616;48.872;9.390;2023-02-11T01:28:14;100327.22;;;-4.70;100.00
53719;BME280;39616;48.872;9.390;2023-02-11T01:30:45;100323.00;;;-4.63;100.00
53719;BME280;39616;48.872;9.390;2023-02-11T01:33:16;100328.84;;;-4.59;100.00
53719;BME280;39616;48.872;9.390;2023-02-11T01:35:46;100324.06;;;-4.56;100.00
53719;BME280;39616;48.872;9.390;2023-02-11T01:38:24;100331.84;;;-4.54;100.00
53719;BME280;39616;48.872;9.390;2023-02-11T01:40:57;100335.78;;;-4.58;100.00
53719;BME280;39616;48.872;9.390;2023-02-11T01:43:32;100341.38;;;-4.62;100.00
53719;BME280;39616;48.872;9.390;2023-02-11T01:46:35;100339.44;;;-4.59;100.00
53719;BME280;39616;48.872;9.390;2023-02-11T01:49:10;100340.78;;;-4.55;100.00
53719;BME280;39616;48.872;9.390;2023-02-11T01:51:45;100341.47;;;-4.53;100.00
53719;BME280;39616;48.872;9.390;2023-02-11T01:54:20;100337.38;;;-4.48;100.00
53719;BME280;39616;48.872;9.390;2023-02-11T01:57:12;100336.09;;;-4.44;100.00
53719;BME280;39616;48.872;9.390;2023-02-11T02:00:06;100340.41;;;-4.43;100.00
53719;BME280;39616;48.872;9.390;2023-02-11T02:03:02;100329.53;;;-4.40;100.00
53719;BME280;39616;48.872;9.390;2023-02-11T02:05:50;100329.53;;;-4.40;100.00
53719;BME280;39616;48.872;9.390;2023-02-11T02:08:40;100319.00;;;-4.31;100.00
53719;BME280;39616;48.872;9.390;2023-02-11T02:11:12;100317.03;;;-4.29;100.00
53719;BME280;39616;48.872;9.390;2023-02-11T02:13:43;100319.69;;;-4.29;100.00
53719;BME280;39616;48.872;9.390;2023-02-11T02:16:17;100319.22;;;-4.25;100.00
53719;BME280;39616;48.872;9.390;2023-02-11T02:19:22;100314.91;;;-4.26;100.00
53719;BME280;39616;48.872;9.390;2023-02-11T02:22:12;100314.16;;;-4.18;100.00
53719;BME280;39616;48.872;9.390;2023-02-11T02:27:59;100310.50;;;-3.99;100.00
53719;BME280;39616;48.872;9.390;2023-02-11T02:36:11;100288.25;;;-3.80;98.57
53719;BME280;39616;48.872;9.390;2023-02-11T02:38:52;100276.75;;;-3.71;98.32
53719;BME280;39616;48.872;9.390;2023-02-11T02:41:28;100266.44;;;-3.74;97.44
53719;BME280;39616;48.872;9.390;2023-02-11T02:43:59;100266.66;;;-3.68;97.34
53719;BME280;39616;48.872;9.390;2023-02-11T02:46:31;100259.47;;;-3.75;97.67
53719;BME280;39616;48.872;9.390;2023-02-11T02:49:02;100265.72;;;-3.84;99.82
53719;BME280;39616;48.872;9.390;2023-02-11T02:51:47;100260.88;;;-3.89;100.00
53719;BME280;39616;48.872;9.390;2023-02-11T03:00:47;100260.81;;;-3.71;100.00
53719;BME280;39616;48.872;9.390;2023-02-11T03:06:34;100255.69;;;-3.65;100.00
53719;BME280;39616;48.872;9.390;2023-02-11T03:09:12;100253.78;;;-3.54;100.00
53719;BME280;39616;48.872;9.390;2023-02-11T03:11:44;100247.66;;;-3.47;100.00
53719;BME280;39616;48.872;9.390;2023-02-11T03:14:16;100251.03;;;-3.36;99.39
53719;BME280;39616;48.872;9.390;2023-02-11T03:16:48;100239.59;;;-3.37;100.00
53719;BME280;39616;48.872;9.390;2023-02-11T03:19:22;100238.63;;;-3.28;99.19
53719;BME280;39616;48.872;9.390;2023-02-11T03:21:55;100240.16;;;-3.25;99.53
53719;BME280;39616;48.872;9.390;2023-02-11T03:24:32;100235.53;;;-3.23;100.00
53719;BME280;39616;48.872;9.390;2023-02-11T03:27:17;100240.00;;;-3.24;99.88
53719;BME280;39616;48.872;9.390;2023-02-11T03:30:10;100233.38;;;-3.20;99.81
53719;BME280;39616;48.872;9.390;2023-02-11T03:32:56;100224.75;;;-3.13;100.00
53719;BME280;39616;48.872;9.390;2023-02-11T03:35:40;100231.41;;;-3.09;99.32
53719;BME280;39616;48.872;9.390;2023-02-11T03:38:17;100245.34;;;-3.07;98.79
53719;BME280;39616;48.872;9.390;2023-02-11T03:40:49;100245.03;;;-3.04;99.78
53719;BME280;39616;48.872;9.390;2023-02-11T03:43:21;100248.19;;;-3.01;100.00
53719;BME280;39616;48.872;9.390;2023-02-11T03:45:55;100240.75;;;-2.97;99.94
53719;BME280;39616;48.872;9.390;2023-02-11T03:48:39;100248.38;;;-2.94;99.90
53719;BME280;39616;48.872;9.390;2023-02-11T03:51:11;100247.06;;;-2.90;98.81
53719;BME280;39616;48.872;9.390;2023-02-11T03:53:43;100244.22;;;-2.88;99.16
53719;BME280;39616;48.872;9.390;2023-02-11T03:56:20;100257.38;;;-2.87;98.83
53719;BME280;39616;48.872;9.390;2023-02-11T03:58:52;100258.19;;;-2.86;97.91
53719;BME280;39616;48.872;9.390;2023-02-11T04:01:22;100259.03;;;-2.86;97.78
53719;BME280;39616;48.872;9.390;2023-02-11T04:03:53;100256.88;;;-2.82;97.48
53719;BME280;39616;48.872;9.390;2023-02-11T04:06:23;100263.00;;;-2.82;97.75
53719;BME280;39616;48.872;9.390;2023-02-11T04:08:53;100265.84;;;-2.83;97.45
53719;BME280;39616;48.872;9.390;2023-02-11T04:11:24;100266.00;;;-2.77;97.63
53719;BME280;39616;48.872;9.390;2023-02-11T04:13:54;100260.72;;;-2.69;99.58
53719;BME280;39616;48.872;9.390;2023-02-11T04:16:24;100259.53;;;-2.66;98.35
53719;BME280;39616;48.872;9.390;2023-02-11T04:18:56;100258.25;;;-2.54;99.43
53719;BME280;39616;48.872;9.390;2023-02-11T04:21:26;100260.41;;;-2.49;98.43
53719;BME280;39616;48.872;9.390;2023-02-11T04:23:56;100265.41;;;-2.46;97.15
53719;BME280;39616;48.872;9.390;2023-02-11T04:26:27;100267.22;;;-2.38;96.78
53719;BME280;39616;48.872;9.390;2023-02-11T04:28:57;100256.59;;;-2.38;96.37
53719;BME280;39616;48.872;9.390;2023-02-11T04:31:27;100267.22;;;-2.30;95.74
53719;BME280;39616;48.872;9.390;2023-02-11T04:33:57;100263.41;;;-2.28;95.66
53719;BME280;39616;48.872;9.390;2023-02-11T04:36:28;100259.44;;;-2.24;95.26
53719;BME280;39616;48.872;9.390;2023-02-11T04:38:58;100261.91;;;-2.22;96.28
53719;BME280;39616;48.872;9.390;2023-02-11T04:41:28;100253.59;;;-2.19;95.66
53719;BME280;39616;48.872;9.390;2023-02-11T04:43:59;100249.59;;;-2.15;94.06
53719;BME280;39616;48.872;9.390;2023-02-11T04:46:29;100253.59;;;-2.19;95.97
53719;BME280;39616;48.872;9.390;2023-02-11T04:48:59;100254.59;;;-2.20;95.96
53719;BME280;39616;48.872;9.390;2023-02-11T04:51:30;100243.16;;;-2.21;96.18
53719;BME280;39616;48.872;9.390;2023-02-11T04:54:00;100241.13;;;-2.19;96.98
53719;BME280;39616;48.872;9.390;2023-02-11T04:56:31;100242.63;;;-2.16;97.38
53719;BME280;39616;48.872;9.390;2023-02-11T04:59:01;100246.94;;;-2.15;97.64
53719;BME280;39616;48.872;9.390;2023-02-11T05:01:32;100251.13;;;-2.12;97.04
53719;BME280;39616;48.872;9.390;2023-02-11T05:04:02;100247.94;;;-2.08;97.70
53719;BME280;39616;48.872;9.390;2023-02-11T05:06:32;100235.66;;;-2.01;98.23
53719;BME280;39616;48.872;9.390;2023-02-11T05:09:03;100228.47;;;-1.92;98.81
53719;BME280;39616;48.872;9.390;2023-02-11T05:11:33;100222.81;;;-1.89;96.99
53719;BME280;39616;48.872;9.390;2023-02-11T05:14:04;100218.66;;;-1.83;96.29
53719;BME280;39616;48.872;9.390;2023-02-11T05:16:35;100208.84;;;-1.83;95.97
53719;BME280;39616;48.872;9.390;2023-02-11T05:19:05;100197.06;;;-1.80;95.75
53719;BME280;39616;48.872;9.390;2023-02-11T05:21:35;100198.03;;;-1.81;94.69
53719;BME280;39616;48.872;9.390;2023-02-11T05:24:06;100191.75;;;-1.80;94.33
53719;BME280;39616;48.872;9.390;2023-02-11T05:26:36;100202.00;;;-1.77;94.66
53719;BME280;39616;48.872;9.390;2023-02-11T05:29:07;100189.56;;;-1.77;93.88
53719;BME280;39616;48.872;9.390;2023-02-11T05:31:37;100190.41;;;-1.76;93.89
53719;BME280;39616;48.872;9.390;2023-02-11T05:34:07;100193.16;;;-1.70;94.73
53719;BME280;39616;48.872;9.390;2023-02-11T05:36:37;100199.69;;;-1.72;93.75
53719;BME280;39616;48.872;9.390;2023-02-11T05:39:08;100200.19;;;-1.68;94.18
53719;BME280;39616;48.872;9.390;2023-02-11T05:41:38;100198.16;;;-1.66;94.69
53719;BME280;39616;48.872;9.390;2023-02-11T05:44:08;100207.63;;;-1.64;94.73
53719;BME280;39616;48.872;9.390;2023-02-11T05:46:39;100191.47;;;-1.62;94.83
53719;BME280;39616;48.872;9.390;2023-02-11T05:49:09;100187.66;;;-1.60;94.97
53719;BME280;39616;48.872;9.390;2023-02-11T05:51:39;100185.66;;;-1.58;94.87
53719;BME280;39616;48.872;9.390;2023-02-11T05:54:10;100179.00;;;-1.54;95.02
53719;BME280;39616;48.872;9.390;2023-02-11T05:56:40;100186.47;;;-1.49;94.73
53719;BME280;39616;48.872;9.390;2023-02-11T05:59:14;100186.47;;;-1.49;94.15
53719;BME280;39616;48.872;9.390;2023-02-11T06:01:44;100199.09;;;-1.43;93.83
53719;BME280;39616;48.872;9.390;2023-02-11T06:04:14;100211.03;;;-1.39;93.59
53719;BME280;39616;48.872;9.390;2023-02-11T06:06:44;100213.00;;;-1.33;93.12
53719;BME280;39616;48.872;9.390;2023-02-11T06:09:15;100217.56;;;-1.50;93.05
53719;BME280;39616;48.872;9.390;2023-02-11T06:11:45;100217.94;;;-1.61;94.76
53719;BME280;39616;48.872;9.390;2023-02-11T06:14:15;100219.78;;;-1.70;94.69
53719;BME280;39616;48.872;9.390;2023-02-11T06:16:46;100226.47;;;-1.82;94.96
53719;BME280;39616;48.872;9.390;2023-02-11T06:19:16;100223.50;;;-1.87;95.42
53719;BME280;39616;48.872;9.390;2023-02-11T06:21:46;100211.84;;;-1.86;96.93
53719;BME280;39616;48.872;9.390;2023-02-11T06:24:16;100225.34;;;-1.87;95.83
53719;BME280;39616;48.872;9.390;2023-02-11T06:26:47;100224.84;;;-1.91;96.48
53719;BME280;39616;48.872;9.390;2023-02-11T06:29:17;100207.69;;;-1.88;97.05
53719;BME280;39616;48.872;9.390;2023-02-11T06:31:47;100203.69;;;-1.84;97.55
53719;BME280;39616;48.872;9.390;2023-02-11T06:34:18;100211.34;;;-1.81;97.29
53719;BME280;39616;48.872;9.390;2023-02-11T06:36:48;100206.34;;;-1.76;96.74
53719;BME280;39616;48.872;9.390;2023-02-11T06:39:18;100211.16;;;-1.72;96.10
53719;BME280;39616;48.872;9.390;2023-02-11T06:41:49;100217.44;;;-1.64;95.29
53719;BME280;39616;48.872;9.390;2023-02-11T06:44:19;100217.41;;;-1.56;94.97
53719;BME280;39616;48.872;9.390;2023-02-11T06:46:49;100216.75;;;-1.50;93.44
53719;BME280;39616;48.872;9.390;2023-02-11T06:49:19;100212.84;;;-1.31;92.06
53719;BME280;39616;48.872;9.390;2023-02-11T06:51:50;100218.97;;;-1.31;90.78
53719;BME280;39616;48.872;9.390;2023-02-11T06:54:20;100223.97;;;-1.28;90.63
53719;BME280;39616;48.872;9.390;2023-02-11T06:56:50;100223.25;;;-1.22;90.95
53719;BME280;39616;48.872;9.390;2023-02-11T06:59:21;100221.06;;;-1.18;90.63
53719;BME280;39616;48.872;9.390;2023-02-11T07:01:51;100220.91;;;-1.16;89.90
53719;BME280;39616;48.872;9.390;2023-02-11T07:04:21;100224.22;;;-1.14;89.94
53719;BME280;39616;48.872;9.390;2023-02-11T07:06:52;100229.19;;;-1.11;89.51
53719;BME280;39616;48.872;9.390;2023-02-11T07:09:22;100229.88;;;-1.09;89.13
53719;BME280;39616;48.872;9.390;2023-02-11T07:11:52;100223.00;;;-1.04;89.08
53719;BME280;39616;48.872;9.390;2023-02-11T07:14:23;100225.31;;;-1.01;89.61
53719;BME280;39616;48.872;9.390;2023-02-11T07:16:53;100214.09;;;-0.88;89.20
53719;BME280;39616;48.872;9.390;2023-02-11T07:19:23;100212.91;;;-0.85;88.48
53719;BME280;39616;48.872;9.390;2023-02-11T07:21:54;100203.69;;;-0.75;88.28
53719;BME280;39616;48.872;9.390;2023-02-11T07:24:24;100204.63;;;-0.67;87.67
53719;BME280;39616;48.872;9.390;2023-02-11T07:26:54;100201.38;;;-0.78;88.13
53719;BME280;39616;48.872;9.390;2023-02-11T07:29:25;100197.59;;;-0.83;89.02
53719;BME280;39616;48.872;9.390;2023-02-11T07:31:55;100208.72;;;-0.80;89.12
53719;BME280;39616;48.872;9.390;2023-02-11T07:34:25;100221.16;;;-0.72;89.18
53719;BME280;39616;48.872;9.390;2023-02-11T07:36:56;100216.59;;;-0.63;89.05
53719;BME280;39616;48.872;9.390;2023-02-11T07:39:26;100218.13;;;-0.46;88.57
53719;BME280;39616;48.872;9.390;2023-02-11T07:41:56;100215.63;;;-0.25;88.31
53719;BME280;39616;48.872;9.390;2023-02-11T07:44:27;100210.50;;;-0.11;86.66
53719;BME280;39616;48.872;9.390;2023-02-11T07:46:58;100213.09;;;-0.03;86.10
53719;BME280;39616;48.872;9.390;2023-02-11T07:49:28;100211.19;;;0.06;85.54
53719;BME280;39616;48.872;9.390;2023-02-11T07:51:59;100210.72;;;0.17;85.38
53719;BME280;39616;48.872;9.390;2023-02-11T07:54:29;100200.72;;;0.19;85.05
53719;BME280;39616;48.872;9.390;2023-02-11T07:56:59;100200.88;;;0.32;84.79
53719;BME280;39616;48.872;9.390;2023-02-11T07:59:30;100193.06;;;0.60;83.99
53719;BME280;39616;48.872;9.390;2023-02-11T08:02:00;100188.78;;;0.81;83.08
53719;BME280;39616;48.872;9.390;2023-02-11T08:04:30;100203.34;;;1.36;80.85
53719;BME280;39616;48.872;9.390;2023-02-11T08:07:00;100197.91;;;1.72;79.32
53719;BME280;39616;48.872;9.390;2023-02-11T08:09:31;100195.13;;;2.08;76.81
53719;BME280;39616;48.872;9.390;2023-02-11T08:12:01;100196.31;;;2.34;76.76
53719;BME280;39616;48.872;9.390;2023-02-11T08:14:32;100200.50;;;2.50;75.01
53719;BME280;39616;48.872;9.390;2023-02-11T08:17:02;100211.78;;;2.80;74.21
53719;BME280;39616;48.872;9.390;2023-02-11T08:19:33;100213.19;;;3.37;72.65
53719;BME280;39616;48.872;9.390;2023-02-11T08:22:03;100205.00;;;3.58;71.09
53719;BME280;39616;48.872;9.390;2023-02-11T08:24:33;100212.63;;;3.61;70.90
53719;BME280;39616;48.872;9.390;2023-02-11T08:27:04;100215.72;;;3.65;70.88
53719;BME280;39616;48.872;9.390;2023-02-11T08:29:34;100223.31;;;3.42;70.81
53719;BME280;39616;48.872;9.390;2023-02-11T08:32:04;100217.13;;;3.41;70.91
53719;BME280;39616;48.872;9.390;2023-02-11T08:34:35;100216.25;;;3.14;71.03
53719;BME280;39616;48.872;9.390;2023-02-11T08:37:06;100213.88;;;2.84;72.04
53719;BME280;39616;48.872;9.390;2023-02-11T08:39:38;100216.69;;;2.70;72.13
53719;BME280;39616;48.872;9.390;2023-02-11T08:42:08;100201.59;;;2.55;72.38
53719;BME280;39616;48.872;9.390;2023-02-11T08:44:38;100206.97;;;2.62;72.71
53719;BME280;39616;48.872;9.390;2023-02-11T08:47:09;100198.97;;;3.36;70.90
53719;BME280;39616;48.872;9.390;2023-02-11T08:49:39;100193.59;;;4.29;68.20
53719;BME280;39616;48.872;9.390;2023-02-11T08:52:11;100188.78;;;5.03;65.71
53719;BME280;39616;48.872;9.390;2023-02-11T08:54:41;100189.56;;;5.73;63.66
53719;BME280;39616;48.872;9.390;2023-02-11T08:57:12;100196.19;;;6.02;62.12
53719;BME280;39616;48.872;9.390;2023-02-11T08:59:42;100206.50;;;5.80;61.60
53719;BME280;39616;48.872;9.390;2023-02-11T09:02:13;100212.03;;;5.29;62.48
53719;BME280;39616;48.872;9.390;2023-02-11T09:04:43;100204.53;;;4.99;63.79
53719;BME280;39616;48.872;9.390;2023-02-11T09:07:14;100206.81;;;4.96;63.94
53719;BME280;39616;48.872;9.390;2023-02-11T09:09:44;100202.25;;;4.96;63.96
53719;BME280;39616;48.872;9.390;2023-02-11T09:12:17;100201.31;;;5.54;63.09
53719;BME280;39616;48.872;9.390;2023-02-11T09:14:47;100189.31;;;6.07;61.54
53719;BME280;39616;48.872;9.390;2023-02-11T09:17:17;100189.72;;;6.28;60.48
53719;BME280;39616;48.872;9.390;2023-02-11T09:19:47;100171.41;;;6.74;59.00
53719;BME280;39616;48.872;9.390;2023-02-11T09:22:18;100160.69;;;6.86;59.28
53719;BME280;39616;48.872;9.390;2023-02-11T09:24:48;100149.38;;;7.37;58.69
53719;BME280;39616;48.872;9.390;2023-02-11T09:27:18;100159.63;;;7.59;57.98
53719;BME280;39616;48.872;9.390;2023-02-11T09:29:49;100161.44;;;7.88;56.60
53719;BME280;39616;48.872;9.390;2023-02-11T09:32:19;100151.44;;;8.12;56.47
53719;BME280;39616;48.872;9.390;2023-02-11T09:34:49;100161.31;;;8.30;56.16
53719;BME280;39616;48.872;9.390;2023-02-11T09:37:20;100161.78;;;8.39;55.36
53719;BME280;39616;48.872;9.390;2023-02-11T09:39:50;100167.41;;;8.49;54.87
53719;BME280;39616;48.872;9.390;2023-02-11T09:42:36;100174.94;;;8.23;55.01
53719;BME280;39616;48.872;9.390;2023-02-11T09:45:16;100179.63;;;8.28;54.70
53719;BME280;39616;48.872;9.390;2023-02-11T09:48:00;100186.09;;;8.04;55.75
53719;BME280;39616;48.872;9.390;2023-02-11T09:50:35;100193.59;;;8.02;56.13
53719;BME280;39616;48.872;9.390;2023-02-11T09:55:52;100198.81;;;8.38;55.30
53719;BME280;39616;48.872;9.390;2023-02-11T09:58:25;100207.34;;;7.46;58.03
53719;BME280;39616;48.872;9.390;2023-02-11T10:03:42;100199.47;;;7.33;59.43
53719;BME280;39616;48.872;9.390;2023-02-11T10:09:46;100208.31;;;7.40;59.56
53719;BME280;39616;48.872;9.390;2023-02-11T10:12:34;100214.22;;;7.00;60.56
53719;BME280;39616;48.872;9.390;2023-02-11T10:15:35;100207.00;;;7.96;58.63
53719;BME280;39616;48.872;9.390;2023-02-11T10:18:56;100209.88;;;8.49;57.04
53719;BME280;39616;48.872;9.390;2023-02-11T10:23:56;100214.59;;;7.76;58.00
53719;BME280;39616;48.872;9.390;2023-02-11T10:26:30;100211.50;;;8.50;56.75
53719;BME280;39616;48.872;9.390;2023-02-11T10:29:10;100213.34;;;8.73;56.67
53719;BME280;39616;48.872;9.390;2023-02-11T10:31:42;100215.13;;;8.67;56.63
53719;BME280;39616;48.872;9.390;2023-02-11T10:34:15;100216.31;;;7.29;59.68
53719;BME280;39616;48.872;9.390;2023-02-11T10:36:45;100212.56;;;7.60;59.80
53719;BME280;39616;48.872;9.390;2023-02-11T10:39:25;100215.59;;;7.52;59.47
53719;BME280;39616;48.872;9.390;2023-02-11T10:42:04;100213.47;;;7.95;59.03
53719;BME280;39616;48.872;9.390;2023-02-11T10:44:38;100203.63;;;7.17;61.49
53719;BME280;39616;48.872;9.390;2023-02-11T10:47:19;100203.97;;;7.21;61.44
53719;BME280;39616;48.872;9.390;2023-02-11T10:49:51;100198.72;;;7.56;59.96
53719;BME280;39616;48.872;9.390;2023-02-11T10:52:26;100193.34;;;7.91;60.32
53719;BME280;39616;48.872;9.390;2023-02-11T10:55:24;100182.81;;;8.02;58.32
53719;BME280;39616;48.872;9.390;2023-02-11T10:57:59;100179.78;;;8.21;58.46
53719;BME280;39616;48.872;9.390;2023-02-11T11:00:40;100170.91;;;8.73;57.86
53719;BME280;39616;48.872;9.390;2023-02-11T11:03:18;100169.06;;;8.38;58.01
53719;BME280;39616;48.872;9.390;2023-02-11T11:08:21;100166.97;;;8.29;59.02
53719;BME280;39616;48.872;9.390;2023-02-11T11:11:03;100167.41;;;8.02;59.24
53719;BME280;39616;48.872;9.390;2023-02-11T11:13:56;100158.13;;;8.57;59.05
53719;BME280;39616;48.872;9.390;2023-02-11T11:16:29;100157.84;;;8.70;58.33
53719;BME280;39616;48.872;9.390;2023-02-11T11:21:44;100174.69;;;7.66;61.03
53719;BME280;39616;48.872;9.390;2023-02-11T11:24:16;100182.09;;;7.29;61.95
53719;BME280;39616;48.872;9.390;2023-02-11T11:26:50;100168.47;;;7.66;61.78
53719;BME280;39616;48.872;9.390;2023-02-11T11:29:54;100153.19;;;8.54;60.28
53719;BME280;39616;48.872;9.390;2023-02-11T11:32:32;100142.84;;;7.80;61.21
53719;BME280;39616;48.872;9.390;2023-02-11T11:35:16;100158.84;;;7.28;62.33
53719;BME280;39616;48.872;9.390;2023-02-11T11:37:55;100159.66;;;7.70;62.71
53719;BME280;39616;48.872;9.390;2023-02-11T11:40:31;100157.44;;;7.25;62.08
53719;BME280;39616;48.872;9.390;2023-02-11T11:45:55;100154.81;;;7.07;64.32
53719;BME280;39616;48.872;9.390;2023-02-11T11:48:37;100151.78;;;7.15;63.68
53719;BME280;39616;48.872;9.390;2023-02-11T11:51:10;100149.00;;;7.34;62.71
53719;BME280;39616;48.872;9.390;2023-02-11T11:56:27;100151.09;;;7.73;62.84
53719;BME280;39616;48.872;9.390;2023-02-11T11:59:02;100146.81;;;8.60;60.52
53719;BME280;39616;48.872;9.390;2023-02-11T12:02:10;100147.56;;;8.20;60.76
53719;BME280;39616;48.872;9.390;2023-02-11T12:07:57;100141.72;;;7.99;62.60
53719;BME280;39616;48.872;9.390;2023-02-11T12:13:40;100154.13;;;7.23;64.77
53719;BME280;39616;48.872;9.390;2023-02-11T12:22:20;100151.84;;;7.39;65.80
53719;BME280;39616;48.872;9.390;2023-02-11T12:36:34;100147.72;;;7.36;66.86
53719;BME280;39616;48.872;9.390;2023-02-11T12:39:20;100152.13;;;7.19;67.10
53719;BME280;39616;48.872;9.390;2023-02-11T12:42:31;100146.06;;;7.35;66.72
53719;BME280;39616;48.872;9.390;2023-02-11T12:45:33;100153.09;;;7.36;67.17
53719;BME280;39616;48.872;9.390;2023-02-11T12:58:59;100124.19;;;7.67;66.99
53719;BME280;39616;48.872;9.390;2023-02-11T13:01:34;100121.25;;;7.80;66.61
53719;BME280;39616;48.872;9.390;2023-02-11T13:04:12;100116.19;;;8.19;66.05
53719;BME280;39616;48.872;9.390;2023-02-11T13:06:49;100115.72;;;7.98;65.37
53719;BME280;39616;48.872;9.390;2023-02-11T13:09:32;100114.88;;;8.33;64.71
53719;BME280;39616;48.872;9.390;2023-02-11T13:12:05;100108.09;;;8.07;65.17
53719;BME280;39616;48.872;9.390;2023-02-11T13:14:55;100106.19;;;8.31;65.09
53719;BME280;39616;48.872;9.390;2023-02-11T13:17:51;100103.41;;;7.79;65.78
53719;BME280;39616;48.872;9.390;2023-02-11T13:20:50;100105.28;;;7.90;65.69
53719;BME280;39616;48.872;9.390;2023-02-11T13:23:30;100107.38;;;7.65;65.91
53719;BME280;39616;48.872;9.390;2023-02-11T13:26:31;100101.63;;;7.38;67.14
53719;BME280;39616;48.872;9.390;2023-02-11T13:29:14;100105.84;;;7.34;67.73
53719;BME280;39616;48.872;9.390;2023-02-11T13:32:08;100103.56;;;7.19;67.65
53719;BME280;39616;48.872;9.390;2023-02-11T13:37:20;100101.13;;;7.29;67.55
53719;BME280;39616;48.872;9.390;2023-02-11T13:40:19;100101.72;;;7.31;68.18
53719;BME280;39616;48.872;9.390;2023-02-11T13:42:58;100102.88;;;7.35;67.39
53719;BME280;39616;48.872;9.390;2023-02-11T13:45:35;100106.09;;;7.56;67.08
53719;BME280;39616;48.872;9.390;2023-02-11T13:50:57;100094.59;;;7.84;66.87
53719;BME280;39616;48.872;9.390;2023-02-11T13:53:29;100092.59;;;7.79;66.11
53719;BME280;39616;48.872;9.390;2023-02-11T13:56:23;100086.97;;;7.92;66.03
53719;BME280;39616;48.872;9.390;2023-02-11T13:58:58;100093.78;;;8.07;66.13
53719;BME280;39616;48.872;9.390;2023-02-11T14:10:58;100089.44;;;7.94;65.65
53719;BME280;39616;48.872;9.390;2023-02-11T14:13:32;100083.50;;;8.20;65.75
53719;BME280;39616;48.872;9.390;2023-02-11T14:18:59;100091.19;;;8.12;64.24
53719;BME280;39616;48.872;9.390;2023-02-11T14:21:37;100076.06;;;7.99;64.65
53719;BME280;39616;48.872;9.390;2023-02-11T14:26:58;100087.53;;;7.94;61.96
53719;BME280;39616;48.872;9.390;2023-02-11T14:29:48;100084.50;;;8.14;61.01
53719;BME280;39616;48.872;9.390;2023-02-11T14:32:48;100082.47;;;8.10;61.45
53719;BME280;39616;48.872;9.390;2023-02-11T14:38:42;100100.94;;;7.78;63.31
53719;BME280;39616;48.872;9.390;2023-02-11T14:41:32;100093.91;;;7.88;64.15
53719;BME280;39616;48.872;9.390;2023-02-11T14:44:15;100087.44;;;7.89;63.77
53719;BME280;39616;48.872;9.390;2023-02-11T14:46:48;100100.59;;;7.62;63.97
53719;BME280;39616;48.872;9.390;2023-02-11T14:49:26;100103.75;;;7.59;64.65
53719;BME280;39616;48.872;9.390;2023-02-11T14:52:39;100092.09;;;7.47;65.10
53719;BME280;39616;48.872;9.390;2023-02-11T14:55:26;100105.25;;;7.43;63.54
53719;BME280;39616;48.872;9.390;2023-02-11T15:05:56;100109.09;;;7.36;63.56
53719;BME280;39616;48.872;9.390;2023-02-11T15:08:28;100113.94;;;7.34;63.26
53719;BME280;39616;48.872;9.390;2023-02-11T15:11:02;100112.53;;;7.43;62.59
53719;BME280;39616;48.872;9.390;2023-02-11T15:13:37;100112.75;;;7.30;64.35
53719;BME280;39616;48.872;9.390;2023-02-11T15:16:08;100115.91;;;7.26;65.04
53719;BME280;39616;48.872;9.390;2023-02-11T15:18:44;100116.63;;;7.34;65.92